Map

Track Data

SID SEASON NUMBER BASIN SUBBASIN NAME ISO_TIME NATURE LAT LON WMO_WIND WMO_PRES WMO_AGENCY TRACK_TYPE DIST2LAND LANDFALL IFLAG USA_AGENCY USA_ATCF_ID USA_LAT USA_LON USA_RECORD USA_STATUS USA_WIND USA_PRES USA_SSHS USA_R34_NE USA_R34_SE USA_R34_SW USA_R34_NW USA_R50_NE USA_R50_SE USA_R50_SW USA_R50_NW USA_R64_NE USA_R64_SE USA_R64_SW USA_R64_NW USA_POCI USA_ROCI USA_RMW USA_EYE TOKYO_LAT TOKYO_LON TOKYO_GRADE TOKYO_WIND TOKYO_PRES TOKYO_R50_DIR TOKYO_R50_LONG TOKYO_R50_SHORT TOKYO_R30_DIR TOKYO_R30_LONG TOKYO_R30_SHORT TOKYO_LAND CMA_LAT CMA_LON CMA_CAT CMA_WIND CMA_PRES HKO_LAT HKO_LON HKO_CAT HKO_WIND HKO_PRES NEWDELHI_LAT NEWDELHI_LON NEWDELHI_GRADE NEWDELHI_WIND NEWDELHI_PRES NEWDELHI_CI NEWDELHI_DP NEWDELHI_POCI REUNION_LAT REUNION_LON REUNION_TYPE REUNION_WIND REUNION_PRES REUNION_TNUM REUNION_CI REUNION_RMW REUNION_R34_NE REUNION_R34_SE REUNION_R34_SW REUNION_R34_NW REUNION_R50_NE REUNION_R50_SE REUNION_R50_SW REUNION_R50_NW REUNION_R64_NE REUNION_R64_SE REUNION_R64_SW REUNION_R64_NW BOM_LAT BOM_LON BOM_TYPE BOM_WIND BOM_PRES BOM_TNUM BOM_CI BOM_RMW BOM_R34_NE BOM_R34_SE BOM_R34_SW BOM_R34_NW BOM_R50_NE BOM_R50_SE BOM_R50_SW BOM_R50_NW BOM_R64_NE BOM_R64_SE BOM_R64_SW BOM_R64_NW BOM_ROCI BOM_POCI BOM_EYE BOM_POS_METHOD BOM_PRES_METHOD NADI_LAT NADI_LON NADI_CAT NADI_WIND NADI_PRES WELLINGTON_LAT WELLINGTON_LON WELLINGTON_WIND WELLINGTON_PRES DS824_LAT DS824_LON DS824_STAGE DS824_WIND DS824_PRES TD9636_LAT TD9636_LON TD9636_STAGE TD9636_WIND TD9636_PRES TD9635_LAT TD9635_LON TD9635_WIND TD9635_PRES TD9635_ROCI NEUMANN_LAT NEUMANN_LON NEUMANN_CLASS NEUMANN_WIND NEUMANN_PRES MLC_LAT MLC_LON MLC_CLASS MLC_WIND MLC_PRES USA_GUST BOM_GUST BOM_GUST_PER REUNION_GUST REUNION_GUST_PER USA_SEAHGT USA_SEARAD_NE USA_SEARAD_SE USA_SEARAD_SW USA_SEARAD_NW STORM_SPEED STORM_DIR
1943254N17133 1943 61 WP MM NOT_NAMED 1943-09-10 12:00:00 NR 17.1000 132.700 main 949 938 __________O___ -1 17.1000 132.700 3 5 294
1943254N17133 1943 61 WP MM NOT_NAMED 1943-09-10 15:00:00 NR 17.2079 132.450 main 929 918 __________P___ -1 17.2079 132.450 3 5 295
1943254N17133 1943 61 WP MM NOT_NAMED 1943-09-10 18:00:00 NR 17.3226 132.190 main 918 893 __________P___ -1 17.3226 132.190 3 6 295
1943254N17133 1943 61 WP MM NOT_NAMED 1943-09-10 21:00:00 NR 17.4509 131.910 main 898 874 __________P___ -1 17.4509 131.910 3 6 296
1943254N17133 1943 61 WP MM NOT_NAMED 1943-09-11 00:00:00 NR 17.6000 131.600 main 874 852 __________O___ -1 17.6000 131.600 4 7 297
1943254N17133 1943 61 WP MM NOT_NAMED 1943-09-11 03:00:00 NR 17.7713 131.254 main 857 826 __________P___ -1 17.7713 131.254 4 8 297
1943254N17133 1943 61 WP MM NOT_NAMED 1943-09-11 06:00:00 NR 17.9450 130.881 main 826 803 __________P___ -1 17.9450 130.881 4 8 294
1943254N17133 1943 61 WP MM NOT_NAMED 1943-09-11 09:00:00 NR 18.0962 130.492 main 803 776 __________P___ -1 18.0962 130.492 4 8 289
1943254N17133 1943 61 WP MM NOT_NAMED 1943-09-11 12:00:00 NR 18.2000 130.100 main 776 743 __________O___ -1 18.2000 130.100 4 8 279
1943254N17133 1943 61 WP MM NOT_NAMED 1943-09-11 15:00:00 NR 18.2172 129.704 main 743 711 __________P___ -1 18.2172 129.704 4 7 269
1943254N17133 1943 61 WP MM NOT_NAMED 1943-09-11 18:00:00 NR 18.1876 129.312 main 711 680 __________P___ -1 18.1876 129.312 4 7 264
1943254N17133 1943 61 WP MM NOT_NAMED 1943-09-11 21:00:00 NR 18.1391 128.939 main 672 649 __________P___ -1 18.1391 128.939 4 7 263
1943254N17133 1943 61 WP MM NOT_NAMED 1943-09-12 00:00:00 NR 18.1000 128.600 main 649 627 __________O___ -1 18.1000 128.600 4 6 267
1943254N17133 1943 61 WP MM NOT_NAMED 1943-09-12 03:00:00 NR 18.1102 128.314 main 627 606 __________P___ -1 18.1102 128.314 4 5 274
1943254N17133 1943 61 WP MM NOT_NAMED 1943-09-12 06:00:00 NR 18.1345 128.063 main 606 577 __________P___ -1 18.1345 128.063 4 5 277
1943254N17133 1943 61 WP MM NOT_NAMED 1943-09-12 09:00:00 NR 18.1666 127.830 main 577 557 __________P___ -1 18.1666 127.830 4 4 278
1943254N17133 1943 61 WP MM NOT_NAMED 1943-09-12 12:00:00 NR 18.2000 127.600 main 557 536 __________O___ -1 18.2000 127.600 4 4 281
1943254N17133 1943 61 WP MM NOT_NAMED 1943-09-12 15:00:00 NR 18.2531 127.375 main 538 517 __________P___ -1 18.2531 127.375 4 4 283
1943254N17133 1943 61 WP MM NOT_NAMED 1943-09-12 18:00:00 NR 18.3019 127.146 main 506 485 __________P___ -1 18.3019 127.146 4 5 279
1943254N17133 1943 61 WP MM NOT_NAMED 1943-09-12 21:00:00 NR 18.3249 126.894 main 485 454 __________P___ -1 18.3249 126.894 4 5 270
1943254N17133 1943 61 WP MM NOT_NAMED 1943-09-13 00:00:00 NR 18.3000 126.600 main 454 422 __________O___ -1 18.3000 126.600 4 6 259
1943254N17133 1943 61 WP MM NOT_NAMED 1943-09-13 03:00:00 NR 18.2004 126.247 main 412 380 __________P___ -1 18.2004 126.247 4 8 251
1943254N17133 1943 61 WP MM NOT_NAMED 1943-09-13 06:00:00 NR 18.0525 125.852 main 380 333 __________P___ -1 18.0525 125.852 4 8 247
1943254N17133 1943 61 WP MM NOT_NAMED 1943-09-13 09:00:00 NR 17.8784 125.431 main 323 276 __________P___ -1 17.8784 125.431 4 9 246
1943254N17133 1943 61 WP MM NOT_NAMED 1943-09-13 12:00:00 NR 17.7000 125.000 main 276 229 __________O___ -1 17.7000 125.000 4 9 246
1943254N17133 1943 61 WP MM NOT_NAMED 1943-09-13 15:00:00 NR 17.5252 124.594 main 229 186 __________P___ -1 17.5252 124.594 4 9 246
1943254N17133 1943 61 WP MM NOT_NAMED 1943-09-13 18:00:00 NR 17.3544 124.180 main 186 139 __________P___ -1 17.3544 124.180 4 9 248
1943254N17133 1943 61 WP MM NOT_NAMED 1943-09-13 21:00:00 NR 17.2064 123.750 main 139 85 __________P___ -1 17.2064 123.750 4 9 253
1943254N17133 1943 61 WP MM NOT_NAMED 1943-09-14 00:00:00 NR 17.1000 123.300 main 85 33 __________O___ -1 17.1000 123.300 4 9 260
1943254N17133 1943 61 WP MM NOT_NAMED 1943-09-14 03:00:00 NR 17.0528 122.818 main 33 0 __________P___ -1 17.0528 122.818 4 9 267
1943254N17133 1943 61 WP MM NOT_NAMED 1943-09-14 06:00:00 NR 17.0474 122.316 main 0 0 __________P___ -1 17.0474 122.316 4 10 271
1943254N17133 1943 61 WP MM NOT_NAMED 1943-09-14 09:00:00 NR 17.0684 121.805 main 0 0 __________P___ -1 17.0684 121.805 4 10 273
1943254N17133 1943 61 WP MM NOT_NAMED 1943-09-14 12:00:00 NR 17.1000 121.300 main 0 0 __________O___ -1 17.1000 121.300 4 9 272
1943254N17133 1943 61 WP MM NOT_NAMED 1943-09-14 15:00:00 NR 17.0966 120.846 main 0 0 __________P___ -1 17.0966 120.846 4 9 270
1943254N17133 1943 61 WP MM NOT_NAMED 1943-09-14 18:00:00 NR 17.1036 120.394 main 10 10 __________P___ -1 17.1036 120.394 4 9 272
1943254N17133 1943 61 WP MM NOT_NAMED 1943-09-14 21:00:00 NR 17.1339 119.921 main 54 54 __________P___ -1 17.1339 119.921 4 10 276
1943254N17133 1943 61 WP MM NOT_NAMED 1943-09-15 00:00:00 NR 17.2000 119.400 main 105 105 __________O___ -1 17.2000 119.400 4 11 281
1943254N17133 1943 61 WP MM NOT_NAMED 1943-09-15 03:00:00 NR 17.3345 118.801 main 154 154 __________P___ -1 17.3345 118.801 4 12 284
1943254N17133 1943 61 WP MM NOT_NAMED 1943-09-15 06:00:00 NR 17.5001 118.154 main 216 216 __________P___ -1 17.5001 118.154 4 13 285
1943254N17133 1943 61 WP MM NOT_NAMED 1943-09-15 09:00:00 NR 17.6656 117.479 main 290 290 __________P___ -1 17.6656 117.479 4 13 283
1943254N17133 1943 61 WP MM NOT_NAMED 1943-09-15 12:00:00 NR 17.8000 116.800 main 360 360 __________O___ -1 17.8000 116.800 4 13 280
1943254N17133 1943 61 WP MM NOT_NAMED 1943-09-15 15:00:00 NR 17.8929 116.146 main 432 432 __________P___ -1 17.8929 116.146 4 13 277
1943254N17133 1943 61 WP MM NOT_NAMED 1943-09-15 18:00:00 NR 17.9468 115.493 main 490 447 __________P___ -1 17.9468 115.493 4 12 273
1943254N17133 1943 61 WP MM NOT_NAMED 1943-09-15 21:00:00 NR 17.9523 114.843 main 438 386 __________P___ -1 17.9523 114.843 4 12 268
1943254N17133 1943 61 WP MM NOT_NAMED 1943-09-16 00:00:00 NR 17.9000 114.200 main 386 339 __________O___ -1 17.9000 114.200 4 12 261
1943254N17133 1943 61 WP MM NOT_NAMED 1943-09-16 03:00:00 NR 17.7574 113.567 main 339 296 __________P___ -1 17.7574 113.567 4 12 254
1943254N17133 1943 61 WP MM NOT_NAMED 1943-09-16 06:00:00 NR 17.5641 112.941 main 286 254 __________P___ -1 17.5641 112.941 4 13 252
1943254N17133 1943 61 WP MM NOT_NAMED 1943-09-16 09:00:00 NR 17.3637 112.320 main 246 216 __________P___ -1 17.3637 112.320 4 12 253
1943254N17133 1943 61 WP MM NOT_NAMED 1943-09-16 12:00:00 NR 17.2000 111.700 main 216 186 __________O___ -1 17.2000 111.700 4 12 258
1943254N17133 1943 61 WP MM NOT_NAMED 1943-09-16 15:00:00 NR 17.1059 111.078 main 186 149 __________P___ -1 17.1059 111.078 4 12 264
1943254N17133 1943 61 WP MM NOT_NAMED 1943-09-16 18:00:00 NR 17.0716 110.454 main 149 124 __________P___ -1 17.0716 110.454 4 12 269
1943254N17133 1943 61 WP MM NOT_NAMED 1943-09-16 21:00:00 NR 17.0765 109.828 main 123 123 __________P___ -1 17.0765 109.828 4 12 271
1943254N17133 1943 61 WP MM NOT_NAMED 1943-09-17 00:00:00 NR 17.1000 109.200 main 127 __________O___ -1 17.1000 109.200 4 12 272

Digital Typhoon Data and Search

About IBTrACS Database

This database is a web-friendly format of International Best Track Archive for Climate Stewardship (IBTrACS), a global best track data archive curated by NOAA dating back to 1842.

Updated: 2021-10-08